Time;durP1;ratioP1;P1;durP2;ratioP2;P2;SDS_P1;SDS_P2;PMS_P1;PMS_P2;Temp;Humidity;BMP_temperature;BMP_pressure;BME280_temperature;BME280_humidity;BME280_pressure;Samples;Min_cycle;Max_cycle;Signal;HPM_P1;HPM_P2
2022/01/12 00:02:07;;;;;;;7.00;5.47;;;;;;;;;;5139879;27;20513;-57
2022/01/12 00:04:35;;;;;;;6.35;5.40;;;;;;;;;;5140645;27;20209;-57
2022/01/12 00:07:02;;;;;;;7.13;5.43;;;;;;;;;;5140315;27;20202;-58
2022/01/12 00:09:31;;;;;;;5.47;4.82;;;;;;;;;;5139814;27;20226;-57
2022/01/12 00:11:59;;;;;;;5.82;5.05;;;;;;;;;;5140094;27;20239;-58
2022/01/12 00:14:27;;;;;;;5.85;5.18;;;;;;;;;;5139648;27;20210;-57
2022/01/12 00:16:59;;;;;;;5.68;4.78;;;;;;;;;;5139087;27;20275;-57
2022/01/12 00:19:27;;;;;;;6.63;4.95;;;;;;;;;;5140164;27;20202;-57
2022/01/12 00:21:56;;;;;;;5.47;4.85;;;;;;;;;;5140377;27;20471;-57
2022/01/12 00:24:26;;;;;;;5.65;4.63;;;;;;;;;;5140386;27;20589;-57
2022/01/12 00:35:11;;;;;;;5.38;3.90;;;;;;;;;;5139302;27;20193;-57
2022/01/12 00:37:39;;;;;;;4.53;4.07;;;;;;;;;;5139362;27;20792;-58
2022/01/12 00:40:07;;;;;;;4.50;4.10;;;;;;;;;;5139242;27;20514;-59
2022/01/12 00:42:35;;;;;;;4.55;4.03;;;;;;;;;;5139400;27;20214;-58
2022/01/12 00:45:04;;;;;;;3.90;3.50;;;;;;;;;;5138831;27;20194;-57
2022/01/12 00:47:31;;;;;;;4.32;3.75;;;;;;;;;;5139652;27;20270;-57
2022/01/12 00:49:59;;;;;;;4.55;4.10;;;;;;;;;;5140051;27;20202;-57
2022/01/12 00:52:27;;;;;;;4.55;4.00;;;;;;;;;;5140174;27;20202;-58
2022/01/12 00:54:54;;;;;;;5.22;4.00;;;;;;;;;;5138575;27;20202;-57
2022/01/12 00:57:22;;;;;;;4.10;3.70;;;;;;;;;;5139683;27;20198;-58
2022/01/12 00:59:50;;;;;;;4.07;3.63;;;;;;;;;;5140296;27;20490;-57
2022/01/12 01:02:18;;;;;;;4.45;3.83;;;;;;;;;;5139882;27;20253;-57
2022/01/12 01:04:46;;;;;;;4.03;3.55;;;;;;;;;;5139670;27;20574;-57
2022/01/12 01:07:13;;;;;;;3.42;3.13;;;;;;;;;;5138944;27;20281;-57
2022/01/12 01:09:46;;;;;;;4.57;4.00;;;;;;;;;;5124660;27;20314;-57
2022/01/12 01:12:14;;;;;;;3.90;3.50;;;;;;;;;;5118697;28;20194;-57
2022/01/12 01:14:48;;;;;;;3.70;3.28;;;;;;;;;;5118751;28;20294;-58
2022/01/12 01:25:31;;;;;;;3.50;3.10;;;;;;;;;;5118845;28;20221;-57
2022/01/12 01:27:59;;;;;;;4.07;3.40;;;;;;;;;;5118962;28;20209;-57
2022/01/12 01:30:26;;;;;;;3.33;3.03;;;;;;;;;;5118462;28;20210;-57
2022/01/12 01:32:57;;;;;;;3.30;2.97;;;;;;;;;;5117787;28;20199;-57
2022/01/12 01:35:27;;;;;;;3.55;2.95;;;;;;;;;;5118421;28;20297;-57
2022/01/12 01:37:54;;;;;;;3.08;2.83;;;;;;;;;;5118347;28;20207;-58
2022/01/12 01:40:22;;;;;;;3.35;3.05;;;;;;;;;;5118033;28;20199;-57
2022/01/12 01:43:08;;;;;;;3.05;2.75;;;;;;;;;;5117656;28;20222;-57
2022/01/12 01:53:53;;;;;;;3.47;3.15;;;;;;;;;;5117969;28;20479;-59
2022/01/12 01:56:21;;;;;;;3.45;3.03;;;;;;;;;;5118159;28;20187;-58
2022/01/12 01:58:48;;;;;;;2.85;2.55;;;;;;;;;;5117841;28;20222;-58
2022/01/12 02:01:16;;;;;;;3.63;2.90;;;;;;;;;;5118467;28;20195;-57
2022/01/12 02:03:45;;;;;;;3.30;3.00;;;;;;;;;;5118015;28;20242;-57
2022/01/12 02:06:13;;;;;;;3.28;2.88;;;;;;;;;;5118083;28;20199;-57
2022/01/12 02:08:40;;;;;;;3.10;2.63;;;;;;;;;;5118253;27;20226;-57
2022/01/12 02:11:07;;;;;;;2.80;2.60;;;;;;;;;;5118490;27;20206;-58
2022/01/12 02:13:35;;;;;;;3.42;2.70;;;;;;;;;;5118183;28;20199;-57
2022/01/12 02:16:02;;;;;;;2.83;2.53;;;;;;;;;;5118023;28;20225;-58
2022/01/12 02:18:42;;;;;;;2.60;2.40;;;;;;;;;;5119532;27;20199;-57
2022/01/12 02:35:17;;;;;;;2.63;2.35;;;;;;;;;;5131942;27;20197;-58
2022/01/12 02:40:35;;;;;;;2.33;2.13;;;;;;;;;;5097907;28;20348;-57
2022/01/12 02:43:10;;;;;;;2.53;2.33;;;;;;;;;;5117327;28;20237;-59
2022/01/12 02:51:14;;;;;;;2.55;2.35;;;;;;;;;;5119515;27;20606;-57
2022/01/12 02:53:43;;;;;;;2.55;2.35;;;;;;;;;;5133183;28;20194;-57
2022/01/12 02:56:11;;;;;;;4.13;2.33;;;;;;;;;;5138684;28;20566;-57
2022/01/12 02:58:39;;;;;;;2.78;2.58;;;;;;;;;;5138306;28;20202;-57
2022/01/12 03:01:51;;;;;;;2.85;2.50;;;;;;;;;;5138104;28;20202;-58
2022/01/12 03:04:19;;;;;;;2.67;2.47;;;;;;;;;;5137933;28;20234;-58
2022/01/12 03:06:46;;;;;;;2.50;2.30;;;;;;;;;;5138267;28;20226;-58
2022/01/12 03:09:15;;;;;;;2.30;2.10;;;;;;;;;;5127887;28;20271;-57
2022/01/12 03:11:42;;;;;;;2.45;2.25;;;;;;;;;;5126407;28;20213;-57
2022/01/12 03:14:10;;;;;;;3.20;2.70;;;;;;;;;;5138312;28;20480;-57
2022/01/12 03:16:38;;;;;;;2.58;2.38;;;;;;;;;;5136656;28;20904;-57
2022/01/12 03:19:05;;;;;;;2.45;2.25;;;;;;;;;;5138047;28;20203;-57
2022/01/12 03:21:33;;;;;;;2.95;2.40;;;;;;;;;;5131740;28;20203;-57
2022/01/12 03:24:02;;;;;;;2.40;2.20;;;;;;;;;;5135848;28;20528;-58
2022/01/12 03:26:33;;;;;;;2.65;2.45;;;;;;;;;;5137719;28;20211;-57
2022/01/12 03:29:00;;;;;;;2.47;2.28;;;;;;;;;;5137804;28;20206;-57
2022/01/12 03:31:30;;;;;;;2.58;2.38;;;;;;;;;;5136438;28;20225;-58
2022/01/12 03:34:05;;;;;;;2.30;2.10;;;;;;;;;;5136432;28;20202;-57
2022/01/12 03:36:53;;;;;;;3.00;2.70;;;;;;;;;;5126501;28;20206;-57
2022/01/12 03:39:21;;;;;;;2.35;2.15;;;;;;;;;;5126505;28;20759;-58
2022/01/12 03:41:49;;;;;;;2.83;2.50;;;;;;;;;;5121204;28;20294;-58
2022/01/12 03:44:18;;;;;;;2.50;2.30;;;;;;;;;;5117451;28;20223;-57
2022/01/12 03:46:47;;;;;;;2.35;2.15;;;;;;;;;;5118323;28;20302;-57
2022/01/12 03:49:15;;;;;;;2.30;2.10;;;;;;;;;;5117777;28;20484;-58
2022/01/12 03:51:42;;;;;;;2.47;2.28;;;;;;;;;;5127431;28;20195;-57
2022/01/12 03:54:10;;;;;;;2.60;2.40;;;;;;;;;;5124236;28;20488;-57
2022/01/12 03:56:38;;;;;;;2.67;2.30;;;;;;;;;;5130848;27;20272;-57
2022/01/12 03:59:17;;;;;;;2.60;2.40;;;;;;;;;;5141541;27;20210;-59
2022/01/12 04:01:44;;;;;;;2.60;2.40;;;;;;;;;;5131451;27;20290;-57
2022/01/12 04:04:20;;;;;;;2.47;2.28;;;;;;;;;;5120410;28;20230;-58
2022/01/12 04:09:41;;;;;;;2.40;2.20;;;;;;;;;;5083090;28;20245;-58
2022/01/12 04:12:09;;;;;;;2.45;2.25;;;;;;;;;;5119434;28;20199;-57
2022/01/12 04:14:38;;;;;;;2.63;2.42;;;;;;;;;;5119820;28;20191;-57
2022/01/12 04:17:05;;;;;;;2.60;2.40;;;;;;;;;;5119354;28;20213;-57
2022/01/12 04:19:34;;;;;;;2.42;2.22;;;;;;;;;;5118073;28;20601;-57
2022/01/12 04:23:16;;;;;;;2.50;2.30;;;;;;;;;;5119559;28;20206;-58
2022/01/12 04:24:49;;;;;;;2.42;2.22;;;;;;;;;;5118684;28;20203;-58
2022/01/12 04:27:17;;;;;;;2.45;2.25;;;;;;;;;;5126968;27;20493;-57
2022/01/12 04:29:45;;;;;;;2.50;2.30;;;;;;;;;;5118983;28;20199;-57
2022/01/12 04:32:13;;;;;;;2.13;1.92;;;;;;;;;;5119162;28;20195;-57
2022/01/12 04:34:41;;;;;;;2.45;2.20;;;;;;;;;;5119362;28;20206;-57
2022/01/12 04:37:08;;;;;;;2.45;2.25;;;;;;;;;;5119144;28;20198;-58
2022/01/12 04:39:35;;;;;;;2.35;2.03;;;;;;;;;;5118933;28;20230;-58
2022/01/12 04:42:02;;;;;;;2.60;2.40;;;;;;;;;;5118693;28;20195;-57
2022/01/12 04:44:30;;;;;;;2.50;2.30;;;;;;;;;;5119887;28;20226;-58
2022/01/12 04:47:06;;;;;;;2.35;2.10;;;;;;;;;;5119147;28;20199;-57
2022/01/12 04:49:48;;;;;;;2.25;2.05;;;;;;;;;;5118710;28;20260;-57
2022/01/12 04:52:16;;;;;;;2.53;2.33;;;;;;;;;;5118794;28;20198;-57
2022/01/12 04:54:43;;;;;;;2.33;2.13;;;;;;;;;;5139781;27;20206;-57
2022/01/12 04:57:10;;;;;;;2.65;2.45;;;;;;;;;;5102367;28;20194;-58
2022/01/12 04:59:46;;;;;;;2.10;1.95;;;;;;;;;;5122954;27;20199;-58
2022/01/12 05:07:56;;;;;;;2.33;2.13;;;;;;;;;;5132315;27;20610;-57
2022/01/12 05:13:08;;;;;;;2.42;2.22;;;;;;;;;;5118743;28;20194;-57
2022/01/12 05:15:36;;;;;;;2.40;2.20;;;;;;;;;;5118892;28;20282;-57
2022/01/12 05:18:05;;;;;;;2.40;2.20;;;;;;;;;;5116741;28;20199;-57
2022/01/12 05:20:32;;;;;;;2.47;2.28;;;;;;;;;;5118620;28;20488;-57
2022/01/12 05:23:00;;;;;;;2.25;2.05;;;;;;;;;;5116812;28;20241;-57
2022/01/12 05:25:27;;;;;;;2.40;2.20;;;;;;;;;;5117577;28;20207;-57
2022/01/12 05:27:55;;;;;;;2.38;2.17;;;;;;;;;;5116724;28;20618;-57
2022/01/12 05:30:22;;;;;;;2.40;2.20;;;;;;;;;;5117763;28;20207;-57
2022/01/12 05:32:50;;;;;;;2.65;2.40;;;;;;;;;;5117692;28;20202;-57
2022/01/12 05:35:20;;;;;;;2.30;2.10;;;;;;;;;;5117341;28;20218;-57
2022/01/12 05:37:47;;;;;;;2.45;2.20;;;;;;;;;;5117339;28;20236;-58
2022/01/12 05:40:16;;;;;;;2.35;2.15;;;;;;;;;;5117559;28;20195;-57
2022/01/12 05:42:44;;;;;;;2.50;2.30;;;;;;;;;;5116503;28;20235;-57
2022/01/12 05:45:11;;;;;;;2.30;2.10;;;;;;;;;;5117203;28;20195;-58
2022/01/12 05:49:34;;;;;;;2.13;2.00;;;;;;;;;;5116336;28;20195;-57
2022/01/12 05:50:30;;;;;;;2.88;2.38;;;;;;;;;;5115710;28;20290;-57
2022/01/12 05:52:57;;;;;;;2.45;1.98;;;;;;;;;;5115267;28;20597;-58
2022/01/12 05:55:25;;;;;;;2.33;2.13;;;;;;;;;;5115389;28;20203;-57
2022/01/12 05:57:52;;;;;;;2.38;2.17;;;;;;;;;;5114409;28;20199;-59
2022/01/12 06:00:21;;;;;;;2.40;2.20;;;;;;;;;;5115524;28;20307;-58
2022/01/12 06:02:48;;;;;;;2.50;2.30;;;;;;;;;;5114914;28;20508;-57
2022/01/12 06:05:18;;;;;;;2.30;2.10;;;;;;;;;;5115613;28;20207;-57
2022/01/12 06:07:47;;;;;;;2.25;2.03;;;;;;;;;;5115182;28;20578;-57
2022/01/12 06:10:14;;;;;;;2.35;2.15;;;;;;;;;;5134834;27;20222;-57
2022/01/12 06:12:41;;;;;;;2.00;1.90;;;;;;;;;;5135517;27;20216;-57
2022/01/12 06:15:09;;;;;;;2.30;2.10;;;;;;;;;;5135715;27;20206;-57
2022/01/12 06:17:37;;;;;;;2.45;2.25;;;;;;;;;;5134324;27;20213;-57
2022/01/12 06:20:05;;;;;;;2.40;2.20;;;;;;;;;;5135103;27;20198;-57
2022/01/12 06:22:33;;;;;;;2.20;2.00;;;;;;;;;;5135473;27;20199;-57
2022/01/12 06:25:04;;;;;;;1.88;1.77;;;;;;;;;;5136093;27;20660;-57
2022/01/12 06:27:33;;;;;;;1.95;1.85;;;;;;;;;;5135747;27;20217;-57
2022/01/12 06:31:09;;;;;;;2.20;2.00;;;;;;;;;;5118042;27;20195;-57
2022/01/12 06:32:51;;;;;;;2.47;2.28;;;;;;;;;;5134879;27;20206;-57
2022/01/12 06:35:19;;;;;;;2.50;2.30;;;;;;;;;;5119553;27;20194;-57
2022/01/12 06:37:46;;;;;;;2.30;2.10;;;;;;;;;;5129787;27;20214;-57
2022/01/12 06:40:16;;;;;;;2.20;2.00;;;;;;;;;;5114921;28;20218;-57
2022/01/12 06:42:44;;;;;;;2.33;2.13;;;;;;;;;;5114342;28;20195;-57
2022/01/12 06:45:11;;;;;;;2.10;1.90;;;;;;;;;;5114832;28;20234;-57
2022/01/12 06:47:39;;;;;;;2.45;2.25;;;;;;;;;;5115655;28;20199;-57
2022/01/12 06:50:07;;;;;;;2.28;2.13;;;;;;;;;;5114056;28;20206;-58
2022/01/12 06:52:34;;;;;;;2.15;1.95;;;;;;;;;;5115835;28;20203;-57
2022/01/12 06:55:03;;;;;;;2.42;2.22;;;;;;;;;;5115751;28;20198;-57
2022/01/12 06:57:32;;;;;;;2.40;2.08;;;;;;;;;;5115342;28;20210;-57
2022/01/12 06:59:59;;;;;;;2.25;2.05;;;;;;;;;;5115391;28;20202;-57
2022/01/12 07:02:27;;;;;;;2.30;2.10;;;;;;;;;;5123780;28;20621;-58
2022/01/12 07:04:54;;;;;;;2.60;2.40;;;;;;;;;;5114596;28;20258;-58
2022/01/12 07:07:23;;;;;;;2.25;2.05;;;;;;;;;;5116120;28;20213;-57
2022/01/12 07:09:50;;;;;;;2.38;2.17;;;;;;;;;;5130911;27;20222;-57
2022/01/12 07:12:18;;;;;;;2.50;2.30;;;;;;;;;;5135141;27;20680;-58
2022/01/12 07:14:46;;;;;;;2.97;2.70;;;;;;;;;;5136040;27;20202;-58
2022/01/12 07:17:15;;;;;;;2.42;2.22;;;;;;;;;;5134670;27;20206;-57
2022/01/12 07:19:42;;;;;;;2.30;2.10;;;;;;;;;;5135184;27;20195;-58
2022/01/12 07:22:09;;;;;;;2.33;2.13;;;;;;;;;;5135296;27;20593;-57
2022/01/12 07:24:36;;;;;;;2.50;2.30;;;;;;;;;;5135636;27;20296;-58
2022/01/12 07:27:05;;;;;;;2.13;2.00;;;;;;;;;;5134447;27;20605;-57
2022/01/12 07:29:32;;;;;;;2.00;1.90;;;;;;;;;;5136015;27;20245;-57
2022/01/12 07:32:01;;;;;;;2.30;2.10;;;;;;;;;;5138985;27;20225;-57
2022/01/12 07:34:28;;;;;;;2.50;2.15;;;;;;;;;;5139972;27;20229;-57
2022/01/12 07:36:56;;;;;;;2.17;1.98;;;;;;;;;;5138951;27;20562;-57
2022/01/12 07:39:23;;;;;;;2.30;2.10;;;;;;;;;;5139485;27;20198;-57
2022/01/12 07:41:51;;;;;;;2.30;2.10;;;;;;;;;;5138498;27;20221;-58
2022/01/12 07:44:20;;;;;;;2.38;2.17;;;;;;;;;;5138430;27;20651;-57
2022/01/12 07:46:48;;;;;;;2.20;2.00;;;;;;;;;;5137955;27;20259;-57
2022/01/12 07:49:17;;;;;;;2.30;2.10;;;;;;;;;;5138853;27;20577;-58
2022/01/12 07:51:44;;;;;;;2.15;1.95;;;;;;;;;;5139655;27;20191;-58
2022/01/12 07:54:11;;;;;;;2.28;2.08;;;;;;;;;;5140138;27;20209;-57
2022/01/12 07:56:38;;;;;;;2.28;2.08;;;;;;;;;;5137905;27;20264;-57
2022/01/12 07:59:06;;;;;;;2.08;1.92;;;;;;;;;;5138460;27;20594;-57
2022/01/12 08:01:34;;;;;;;3.08;2.13;;;;;;;;;;5138894;27;20229;-57
2022/01/12 08:04:01;;;;;;;2.10;1.90;;;;;;;;;;5137995;27;20221;-58
2022/01/12 08:06:30;;;;;;;2.05;1.95;;;;;;;;;;5138631;27;20543;-57
2022/01/12 08:08:58;;;;;;;4.35;2.50;;;;;;;;;;5137442;27;20326;-57
2022/01/12 08:11:25;;;;;;;2.50;2.30;;;;;;;;;;5137216;27;20186;-58
2022/01/12 08:13:53;;;;;;;2.42;2.22;;;;;;;;;;5139414;27;20612;-58
2022/01/12 08:16:20;;;;;;;2.75;2.10;;;;;;;;;;5137148;27;20190;-57
2022/01/12 08:18:48;;;;;;;3.38;2.33;;;;;;;;;;5136319;27;20221;-57
2022/01/12 08:21:15;;;;;;;2.90;2.53;;;;;;;;;;5137182;27;20195;-58
2022/01/12 08:23:44;;;;;;;2.78;2.55;;;;;;;;;;5136930;27;20205;-57
2022/01/12 08:26:11;;;;;;;3.00;2.15;;;;;;;;;;5137216;27;20187;-57
2022/01/12 08:28:38;;;;;;;3.00;2.70;;;;;;;;;;5137701;27;20215;-58
2022/01/12 08:31:06;;;;;;;2.90;2.22;;;;;;;;;;5137685;27;20213;-58
2022/01/12 08:33:33;;;;;;;223.68;200.80;;;;;;;;;;5136545;27;20221;-58
2022/01/12 08:36:00;;;;;;;204.13;183.48;;;;;;;;;;5137516;27;20194;-57
2022/01/12 08:38:28;;;;;;;213.32;192.02;;;;;;;;;;5137198;27;20198;-57
2022/01/12 08:40:57;;;;;;;206.43;186.10;;;;;;;;;;5137821;27;20198;-57
2022/01/12 08:43:24;;;;;;;215.02;193.80;;;;;;;;;;5138285;27;20214;-57
2022/01/12 08:45:53;;;;;;;199.77;180.38;;;;;;;;;;5137626;27;20221;-57
2022/01/12 08:48:21;;;;;;;190.82;172.02;;;;;;;;;;5137919;27;20672;-57
2022/01/12 08:50:49;;;;;;;177.90;160.50;;;;;;;;;;5137287;27;20214;-57
2022/01/12 08:53:17;;;;;;;168.70;152.43;;;;;;;;;;5137720;27;20586;-57
2022/01/12 08:55:44;;;;;;;159.95;144.30;;;;;;;;;;5137040;27;20202;-58
2022/01/12 08:58:13;;;;;;;149.85;135.48;;;;;;;;;;5136125;27;20229;-58
2022/01/12 09:00:40;;;;;;;141.10;127.55;;;;;;;;;;5137566;27;20202;-57
2022/01/12 09:03:08;;;;;;;131.80;119.13;;;;;;;;;;5136721;27;20202;-57
2022/01/12 09:05:36;;;;;;;127.38;115.00;;;;;;;;;;5135704;27;20320;-57
2022/01/12 09:08:03;;;;;;;116.43;105.07;;;;;;;;;;5134677;27;20540;-57
2022/01/12 09:10:31;;;;;;;110.75;99.80;;;;;;;;;;5117611;27;20235;-58
2022/01/12 09:12:58;;;;;;;108.60;98.35;;;;;;;;;;5096723;28;20200;-57
2022/01/12 09:15:27;;;;;;;98.32;89.07;;;;;;;;;;5100554;28;20206;-57
2022/01/12 09:17:55;;;;;;;92.63;83.80;;;;;;;;;;5116863;28;20199;-57
2022/01/12 09:20:23;;;;;;;86.45;77.97;;;;;;;;;;5116610;28;20214;-57
2022/01/12 09:22:51;;;;;;;79.75;72.10;;;;;;;;;;5115172;28;20210;-58
2022/01/12 09:25:18;;;;;;;75.47;68.38;;;;;;;;;;5116813;28;20226;-57
2022/01/12 09:27:46;;;;;;;73.10;66.18;;;;;;;;;;5116210;28;20210;-58
2022/01/12 09:30:13;;;;;;;69.55;62.75;;;;;;;;;;5115883;28;20206;-58
2022/01/12 09:32:42;;;;;;;65.10;58.97;;;;;;;;;;5115173;28;20202;-57
2022/01/12 09:35:11;;;;;;;64.32;58.22;;;;;;;;;;5115856;28;20195;-58
2022/01/12 09:37:39;;;;;;;60.17;54.47;;;;;;;;;;5114551;28;20210;-58
2022/01/12 09:40:07;;;;;;;58.03;52.53;;;;;;;;;;5116930;28;20202;-58
2022/01/12 09:42:34;;;;;;;54.75;49.63;;;;;;;;;;5117221;28;20210;-57
2022/01/12 09:45:03;;;;;;;55.97;50.58;;;;;;;;;;5116811;28;20215;-57
2022/01/12 09:47:31;;;;;;;52.40;47.50;;;;;;;;;;5116657;28;20195;-57
2022/01/12 09:49:59;;;;;;;51.65;46.60;;;;;;;;;;5116650;28;20477;-58
2022/01/12 09:52:27;;;;;;;50.78;45.90;;;;;;;;;;5115923;28;20203;-57
2022/01/12 09:54:54;;;;;;;47.92;43.22;;;;;;;;;;5116261;28;20203;-58
2022/01/12 09:57:21;;;;;;;51.08;45.97;;;;;;;;;;5116392;28;20203;-58
2022/01/12 09:59:49;;;;;;;53.40;48.22;;;;;;;;;;5117079;28;20218;-57
2022/01/12 10:02:17;;;;;;;49.65;44.75;;;;;;;;;;5115898;28;20503;-58
2022/01/12 10:04:44;;;;;;;47.47;42.92;;;;;;;;;;5116949;28;20227;-57
2022/01/12 10:07:14;;;;;;;44.95;40.75;;;;;;;;;;5115229;28;20214;-57
2022/01/12 10:09:44;;;;;;;44.20;40.00;;;;;;;;;;5127934;27;20234;-57
2022/01/12 10:12:13;;;;;;;42.55;38.38;;;;;;;;;;5136300;27;20503;-58
2022/01/12 10:14:41;;;;;;;42.53;38.53;;;;;;;;;;5137298;27;20205;-57
2022/01/12 10:17:10;;;;;;;40.53;36.72;;;;;;;;;;5134410;27;20708;-58
2022/01/12 10:19:37;;;;;;;39.25;35.55;;;;;;;;;;5137548;27;20484;-57
2022/01/12 10:22:05;;;;;;;38.65;35.08;;;;;;;;;;5136374;27;20590;-57
2022/01/12 10:24:37;;;;;;;37.13;33.65;;;;;;;;;;5135703;27;20236;-58
2022/01/12 10:27:11;;;;;;;35.78;32.55;;;;;;;;;;5123122;27;20207;-57
2022/01/12 10:29:38;;;;;;;35.35;32.03;;;;;;;;;;5115569;28;20199;-57
2022/01/12 10:32:08;;;;;;;32.85;29.83;;;;;;;;;;5117193;27;20186;-57
2022/01/12 10:34:38;;;;;;;32.65;29.55;;;;;;;;;;5135602;27;20597;-57
2022/01/12 10:37:07;;;;;;;30.23;27.42;;;;;;;;;;5122434;27;20209;-57
2022/01/12 10:39:39;;;;;;;31.02;28.13;;;;;;;;;;5131274;27;20237;-58
2022/01/12 10:42:07;;;;;;;30.23;27.33;;;;;;;;;;5122974;27;20199;-57
2022/01/12 10:44:36;;;;;;;31.73;28.52;;;;;;;;;;5113767;28;20195;-58
2022/01/12 10:47:07;;;;;;;31.67;28.25;;;;;;;;;;5115311;28;20586;-57
2022/01/12 10:49:36;;;;;;;29.08;26.20;;;;;;;;;;5114726;28;20198;-58
2022/01/12 10:52:04;;;;;;;28.63;25.98;;;;;;;;;;5114563;28;20218;-57
2022/01/12 10:54:42;;;;;;;27.77;24.90;;;;;;;;;;5116734;28;20252;-58
2022/01/12 10:57:18;;;;;;;28.25;25.38;;;;;;;;;;5135078;27;20197;-57
2022/01/12 10:59:48;;;;;;;27.73;24.98;;;;;;;;;;5135546;28;20683;-58
2022/01/12 11:02:16;;;;;;;25.58;23.13;;;;;;;;;;5119698;28;20590;-58
2022/01/12 11:04:43;;;;;;;24.50;22.15;;;;;;;;;;5116165;27;20558;-57
2022/01/12 11:07:12;;;;;;;23.60;21.38;;;;;;;;;;5119279;27;20601;-57
2022/01/12 11:09:39;;;;;;;21.73;19.83;;;;;;;;;;5127101;27;20268;-58
2022/01/12 11:12:06;;;;;;;20.95;18.95;;;;;;;;;;5101778;28;20622;-57
2022/01/12 11:14:35;;;;;;;20.38;18.38;;;;;;;;;;5118440;28;20202;-58
2022/01/12 11:17:03;;;;;;;19.50;17.70;;;;;;;;;;5112797;27;20203;-58
2022/01/12 11:19:32;;;;;;;18.85;17.23;;;;;;;;;;5117558;28;20209;-58
2022/01/12 11:22:04;;;;;;;19.23;17.30;;;;;;;;;;5110050;27;20210;-58
2022/01/12 11:24:34;;;;;;;18.17;16.48;;;;;;;;;;5118873;28;20214;-57
2022/01/12 11:27:04;;;;;;;17.38;15.77;;;;;;;;;;5131665;27;20198;-57
2022/01/12 11:29:34;;;;;;;17.52;15.98;;;;;;;;;;5138126;27;20216;-58
2022/01/12 11:32:13;;;;;;;15.57;13.98;;;;;;;;;;5137468;27;20206;-57
2022/01/12 11:34:41;;;;;;;16.50;15.00;;;;;;;;;;5139386;27;20198;-57
2022/01/12 11:37:13;;;;;;;15.52;14.13;;;;;;;;;;5135246;27;20493;-58
2022/01/12 11:39:40;;;;;;;15.43;13.90;;;;;;;;;;5122528;27;20473;-58
2022/01/12 11:42:08;;;;;;;14.82;13.43;;;;;;;;;;5119039;27;20773;-57
2022/01/12 11:44:36;;;;;;;14.85;13.48;;;;;;;;;;5128134;27;20414;-58
2022/01/12 11:47:05;;;;;;;13.98;12.68;;;;;;;;;;5125545;27;20261;-57
2022/01/12 11:49:35;;;;;;;14.10;12.90;;;;;;;;;;5135849;27;20194;-57
2022/01/12 11:52:14;;;;;;;13.15;11.93;;;;;;;;;;5128539;27;20234;-58
2022/01/12 11:54:45;;;;;;;11.98;10.88;;;;;;;;;;5137088;27;20578;-58
2022/01/12 11:57:18;;;;;;;12.02;10.93;;;;;;;;;;5136444;27;20444;-58
2022/01/12 11:59:53;;;;;;;14.85;13.45;;;;;;;;;;5118097;27;20554;-57
2022/01/12 12:02:22;;;;;;;14.05;12.73;;;;;;;;;;5122322;27;20199;-57
2022/01/12 12:04:58;;;;;;;14.05;12.23;;;;;;;;;;5117342;28;20264;-58
2022/01/12 12:07:25;;;;;;;13.05;11.80;;;;;;;;;;5119294;27;20206;-58
2022/01/12 12:09:56;;;;;;;12.30;11.10;;;;;;;;;;5130672;27;20233;-57
2022/01/12 12:12:25;;;;;;;11.77;10.63;;;;;;;;;;5137852;27;20477;-58
2022/01/12 12:14:54;;;;;;;11.52;10.48;;;;;;;;;;5137709;27;20206;-57
2022/01/12 12:17:23;;;;;;;11.25;10.15;;;;;;;;;;5137435;27;20514;-57
2022/01/12 12:19:51;;;;;;;11.32;10.27;;;;;;;;;;5137402;27;20202;-58
2022/01/12 12:22:22;;;;;;;10.77;9.77;;;;;;;;;;5137448;27;20214;-58
2022/01/12 12:24:53;;;;;;;10.20;9.30;;;;;;;;;;5138123;27;20198;-58
2022/01/12 12:27:21;;;;;;;10.05;9.15;;;;;;;;;;5137795;27;20221;-57
2022/01/12 12:29:49;;;;;;;10.13;9.10;;;;;;;;;;5136425;27;20503;-58
2022/01/12 12:32:17;;;;;;;10.40;9.40;;;;;;;;;;5136031;27;20205;-58
2022/01/12 12:34:46;;;;;;;9.27;8.38;;;;;;;;;;5137330;27;20194;-58
2022/01/12 12:37:16;;;;;;;9.02;8.13;;;;;;;;;;5136464;27;20210;-58
2022/01/12 12:39:45;;;;;;;9.25;8.35;;;;;;;;;;5136381;27;20194;-58
2022/01/12 12:42:17;;;;;;;8.32;7.55;;;;;;;;;;5135167;27;20214;-58
2022/01/12 12:44:45;;;;;;;7.97;7.28;;;;;;;;;;5133412;27;20195;-58
2022/01/12 12:47:13;;;;;;;8.73;7.93;;;;;;;;;;5135562;27;20226;-57
2022/01/12 12:49:48;;;;;;;8.13;7.32;;;;;;;;;;5137076;27;20198;-58
2022/01/12 12:52:23;;;;;;;8.63;7.60;;;;;;;;;;5136615;27;20206;-57
2022/01/12 12:54:51;;;;;;;7.60;6.90;;;;;;;;;;5137491;27;20201;-58
2022/01/12 12:57:21;;;;;;;7.95;6.88;;;;;;;;;;5136051;27;20194;-57
2022/01/12 12:59:48;;;;;;;7.88;7.07;;;;;;;;;;5135883;27;20202;-57
2022/01/12 13:02:16;;;;;;;6.97;6.28;;;;;;;;;;5136859;27;20203;-58
2022/01/12 13:04:43;;;;;;;7.00;6.38;;;;;;;;;;5137072;27;20206;-58
2022/01/12 13:07:14;;;;;;;7.80;6.43;;;;;;;;;;5135077;27;20218;-58
2022/01/12 13:09:42;;;;;;;6.40;5.80;;;;;;;;;;5135922;27;20226;-59
2022/01/12 13:12:11;;;;;;;6.45;5.85;;;;;;;;;;5135633;27;20198;-57
2022/01/12 13:14:42;;;;;;;6.30;5.70;;;;;;;;;;5134377;27;20203;-58
2022/01/12 13:17:10;;;;;;;5.97;5.43;;;;;;;;;;5134431;27;20713;-58
2022/01/12 13:22:28;;;;;;;6.65;6.00;;;;;;;;;;5135296;27;20187;-57
2022/01/12 13:24:56;;;;;;;6.18;5.57;;;;;;;;;;5134282;27;20229;-58
2022/01/12 13:27:25;;;;;;;5.78;5.18;;;;;;;;;;5131809;27;20241;-57
2022/01/12 13:29:53;;;;;;;5.97;5.47;;;;;;;;;;5134393;27;20194;-58
2022/01/12 13:32:21;;;;;;;6.05;5.55;;;;;;;;;;5134596;27;20209;-58
2022/01/12 13:34:58;;;;;;;5.50;5.00;;;;;;;;;;5135061;27;20202;-57
2022/01/12 13:37:26;;;;;;;5.93;5.40;;;;;;;;;;5133001;27;20198;-57
2022/01/12 13:40:07;;;;;;;5.45;4.85;;;;;;;;;;5114773;28;20206;-58
2022/01/12 13:42:46;;;;;;;5.22;4.72;;;;;;;;;;5129232;27;20263;-58
2022/01/12 13:45:16;;;;;;;5.32;4.82;;;;;;;;;;5132570;27;20195;-57
2022/01/12 13:47:49;;;;;;;5.28;4.75;;;;;;;;;;5132011;27;20684;-57
2022/01/12 13:50:19;;;;;;;4.65;4.25;;;;;;;;;;5131564;27;20198;-57
2022/01/12 13:52:54;;;;;;;5.00;4.50;;;;;;;;;;5131867;27;20480;-58
2022/01/12 13:55:21;;;;;;;5.40;4.85;;;;;;;;;;5132264;27;20465;-57
2022/01/12 13:57:58;;;;;;;4.75;4.35;;;;;;;;;;5131422;27;20209;-59
2022/01/12 14:00:25;;;;;;;4.78;4.30;;;;;;;;;;5134602;27;20197;-57
2022/01/12 14:02:52;;;;;;;4.60;4.20;;;;;;;;;;5132836;27;20198;-57
2022/01/12 14:05:21;;;;;;;4.63;4.22;;;;;;;;;;5132602;27;20228;-57
2022/01/12 14:07:59;;;;;;;4.43;4.03;;;;;;;;;;5131097;27;20191;-57
2022/01/12 14:10:27;;;;;;;4.00;3.70;;;;;;;;;;5132179;27;20330;-58
2022/01/12 14:12:55;;;;;;;4.40;4.07;;;;;;;;;;5131462;27;20291;-58
2022/01/12 14:15:26;;;;;;;4.00;3.70;;;;;;;;;;5130687;27;20198;-58
2022/01/12 14:17:54;;;;;;;4.10;3.70;;;;;;;;;;5131726;27;20194;-58
2022/01/12 14:20:30;;;;;;;4.30;3.90;;;;;;;;;;5134132;27;20517;-58
2022/01/12 14:22:59;;;;;;;4.50;4.10;;;;;;;;;;5133700;27;20209;-58
2022/01/12 14:25:35;;;;;;;4.57;3.80;;;;;;;;;;5134302;27;20201;-57
2022/01/12 14:28:03;;;;;;;3.83;3.50;;;;;;;;;;5132355;27;20201;-57
2022/01/12 14:30:32;;;;;;;3.95;3.65;;;;;;;;;;5132599;27;20218;-57
2022/01/12 14:32:59;;;;;;;3.95;3.65;;;;;;;;;;5132428;27;20201;-58
2022/01/12 14:35:27;;;;;;;3.92;3.63;;;;;;;;;;5133092;27;20248;-58
2022/01/12 14:37:55;;;;;;;3.90;3.60;;;;;;;;;;5133094;27;20201;-57
2022/01/12 14:40:22;;;;;;;3.50;3.20;;;;;;;;;;5134229;27;20353;-57
2022/01/12 14:42:52;;;;;;;3.78;3.47;;;;;;;;;;5132629;27;20194;-57
2022/01/12 14:45:22;;;;;;;3.85;3.55;;;;;;;;;;5134382;27;20202;-57
2022/01/12 14:47:51;;;;;;;3.65;3.35;;;;;;;;;;5132202;27;20214;-57
2022/01/12 14:50:19;;;;;;;3.70;3.40;;;;;;;;;;5133775;27;20224;-57
2022/01/12 14:52:46;;;;;;;3.42;3.13;;;;;;;;;;5132550;27;20595;-57
2022/01/12 14:55:14;;;;;;;3.67;3.40;;;;;;;;;;5132784;27;20198;-57
2022/01/12 14:57:42;;;;;;;4.10;3.30;;;;;;;;;;5132559;27;20209;-57
2022/01/12 15:00:16;;;;;;;3.63;3.33;;;;;;;;;;5133445;27;20602;-57
2022/01/12 15:02:43;;;;;;;4.03;3.63;;;;;;;;;;5131962;28;20220;-57
2022/01/12 15:05:12;;;;;;;3.47;3.17;;;;;;;;;;5133408;28;20198;-58
2022/01/12 15:07:39;;;;;;;3.88;3.15;;;;;;;;;;5131848;27;20783;-57
2022/01/12 15:10:07;;;;;;;3.60;3.30;;;;;;;;;;5132744;28;20245;-57
2022/01/12 15:12:38;;;;;;;3.28;3.08;;;;;;;;;;5131045;28;20198;-58
2022/01/12 15:15:07;;;;;;;3.25;2.97;;;;;;;;;;5132334;28;20208;-57
2022/01/12 15:17:36;;;;;;;3.38;3.08;;;;;;;;;;5132426;28;20585;-57
2022/01/12 15:20:07;;;;;;;3.40;3.10;;;;;;;;;;5132725;28;20194;-57
2022/01/12 15:22:36;;;;;;;3.25;2.95;;;;;;;;;;5134222;27;20254;-57
2022/01/12 15:25:04;;;;;;;3.25;2.95;;;;;;;;;;5133372;28;20247;-57
2022/01/12 15:27:31;;;;;;;3.92;3.17;;;;;;;;;;5133883;27;20218;-57
2022/01/12 15:29:58;;;;;;;2.97;2.78;;;;;;;;;;5133893;27;20198;-58
2022/01/12 15:32:27;;;;;;;3.20;2.90;;;;;;;;;;5135079;28;20199;-58
2022/01/12 15:34:55;;;;;;;3.45;2.90;;;;;;;;;;5135910;28;20210;-57
2022/01/12 15:37:22;;;;;;;3.42;3.13;;;;;;;;;;5133600;28;20593;-57
2022/01/12 15:39:51;;;;;;;3.00;2.80;;;;;;;;;;5134083;27;20198;-57
2022/01/12 15:42:18;;;;;;;3.28;2.58;;;;;;;;;;5133853;28;20202;-58
2022/01/12 15:44:45;;;;;;;3.38;3.08;;;;;;;;;;5132077;27;20191;-57
2022/01/12 15:47:14;;;;;;;3.42;3.13;;;;;;;;;;5132780;28;20229;-58
2022/01/12 15:49:41;;;;;;;3.90;2.72;;;;;;;;;;5131576;27;20286;-57